Cusseta, Alabama
Current Conditions -  °F | °C
As of 6:35 PM on Wednesday 26 Nov 2014 (Local Time) from KAUO Reporting Station
Clear Clear  
Wind Chill: 41°   Ceiling: Unl
Heat Index: 45°   Visibility: 10mi
Dew Point: 27°   Wind: 6mph
Humidity: 49%   Direction: 190°S
Pressure: 30.13"   Gusts: NA
Location:  32.79°N, 85.31°W
Report Text: KAUO 270035Z AUTO 19005KT 10SM CLR 07/M03 A3013 RMK AO1
Loading
Personal Weather Stations






























Interactive Weather Map New forecast layout! Learn more

10-Day Weather Forecast

Advertisements
Track Severe Weather on mobile